createdAt,value
2017-10-26T00:00:08.768Z,9.93
2017-10-26T00:02:34.801Z,8.50
2017-10-26T00:05:00.740Z,9.50
2017-10-26T00:07:26.749Z,9.90
2017-10-26T00:09:52.753Z,8.90
2017-10-26T00:12:18.700Z,8.90
2017-10-26T00:14:44.653Z,9.53
2017-10-26T00:17:10.634Z,10.37
2017-10-26T00:19:37.298Z,10.30
2017-10-26T00:22:03.298Z,8.83
2017-10-26T00:24:29.241Z,10.17
2017-10-26T00:26:55.181Z,9.20
2017-10-26T00:29:21.147Z,10.07
2017-10-26T00:31:47.182Z,10.10
2017-10-26T00:34:13.151Z,10.47
2017-10-26T00:36:39.121Z,9.30
2017-10-26T00:39:05.085Z,10.90
2017-10-26T00:41:31.085Z,10.63
2017-10-26T00:43:57.086Z,10.60
2017-10-26T00:46:23.038Z,10.67
2017-10-26T00:48:48.996Z,10.50
2017-10-26T00:51:14.953Z,10.87
2017-10-26T00:53:40.923Z,10.73
2017-10-26T00:56:06.845Z,10.83
2017-10-26T00:58:32.852Z,11.00
2017-10-26T01:00:58.793Z,10.40
2017-10-26T01:03:24.769Z,11.63
2017-10-26T01:05:51.531Z,10.87
2017-10-26T01:08:17.570Z,9.80
2017-10-26T01:10:43.564Z,11.07
2017-10-26T01:13:10.255Z,11.10
2017-10-26T01:15:36.224Z,10.10
2017-10-26T01:18:02.225Z,9.70
2017-10-26T01:20:28.139Z,10.03
2017-10-26T01:22:54.100Z,11.13
2017-10-26T01:25:20.037Z,11.73
2017-10-26T01:27:46.025Z,11.67
2017-10-26T01:30:11.979Z,10.67
2017-10-26T01:32:37.971Z,11.90
2017-10-26T01:35:03.971Z,11.03
2017-10-26T01:37:29.920Z,10.90
2017-10-26T01:39:55.886Z,11.50
2017-10-26T01:42:21.846Z,10.60
2017-10-26T01:44:47.825Z,11.53
2017-10-26T01:47:13.855Z,13.10
2017-10-26T01:49:39.851Z,13.10
2017-10-26T01:52:05.828Z,12.97
2017-10-26T01:54:31.780Z,11.60
2017-10-26T01:56:57.746Z,11.90
2017-10-26T01:59:23.695Z,11.60
2017-10-26T02:01:49.630Z,11.70
2017-10-26T02:04:15.600Z,12.07
2017-10-26T02:06:42.574Z,11.90
2017-10-26T02:09:08.771Z,12.23
2017-10-26T02:11:35.488Z,12.00
2017-10-26T02:14:01.463Z,12.40
2017-10-26T02:16:27.457Z,11.33
2017-10-26T02:18:54.131Z,11.30
2017-10-26T02:21:20.041Z,10.90
2017-10-26T02:23:46.050Z,11.63
2017-10-26T02:26:11.996Z,11.23
2017-10-26T02:28:51.128Z,11.50
2017-10-26T02:31:29.393Z,11.03
2017-10-26T02:33:56.127Z,10.67
2017-10-26T02:36:22.108Z,10.50
2017-10-26T02:38:48.074Z,10.20
2017-10-26T02:41:14.870Z,11.50
2017-10-26T02:43:40.834Z,13.50
2017-10-26T02:46:06.807Z,12.07
2017-10-26T02:48:33.591Z,12.07
2017-10-26T02:50:59.562Z,11.63
2017-10-26T02:53:25.538Z,12.20
2017-10-26T02:55:51.480Z,12.20
2017-10-26T02:58:17.482Z,12.90
2017-10-26T03:00:43.411Z,10.47
2017-10-26T03:03:09.341Z,10.40
2017-10-26T03:05:35.279Z,12.40
2017-10-26T03:08:01.232Z,11.93
2017-10-26T03:10:27.201Z,12.70
2017-10-26T03:12:53.891Z,13.30
2017-10-26T03:15:19.873Z,11.80
2017-10-26T03:17:45.820Z,11.67
2017-10-26T03:20:12.536Z,11.80
2017-10-26T03:22:38.505Z,11.37
2017-10-26T03:25:04.501Z,11.90
2017-10-26T03:27:30.451Z,11.97
2017-10-26T03:29:56.463Z,11.30
2017-10-26T03:32:22.452Z,12.40
2017-10-26T03:34:49.114Z,12.40
2017-10-26T03:37:15.040Z,13.20
2017-10-26T03:39:41.014Z,12.53
2017-10-26T03:42:06.993Z,12.90
2017-10-26T03:44:32.917Z,11.70
2017-10-26T03:46:58.891Z,12.27
2017-10-26T03:49:24.847Z,11.40
2017-10-26T03:51:50.803Z,11.00
2017-10-26T03:54:17.524Z,12.10
2017-10-26T03:56:43.519Z,12.57
2017-10-26T03:59:09.476Z,12.60
2017-10-26T04:01:35.411Z,11.37
2017-10-26T04:04:02.127Z,12.30
2017-10-26T04:06:28.118Z,12.10
2017-10-26T04:08:54.143Z,11.80
2017-10-26T04:11:20.100Z,13.20
2017-10-26T04:13:46.120Z,11.30
2017-10-26T04:16:12.095Z,13.23
2017-10-26T04:18:38.077Z,11.50
2017-10-26T04:21:04.122Z,12.17
2017-10-26T04:23:30.150Z,12.03
2017-10-26T04:25:56.148Z,14.00
2017-10-26T04:28:22.160Z,14.70
2017-10-26T04:30:48.849Z,13.37
2017-10-26T04:33:14.799Z,13.07
2017-10-26T04:35:40.781Z,13.30
2017-10-26T04:38:06.773Z,13.73
2017-10-26T04:40:33.460Z,13.00
2017-10-26T04:42:59.480Z,14.40
2017-10-26T04:45:26.185Z,13.23
2017-10-26T04:47:52.184Z,12.77
2017-10-26T04:50:18.302Z,12.70
2017-10-26T04:52:44.563Z,13.83
2017-10-26T04:55:10.571Z,13.20
2017-10-26T04:57:36.595Z,13.00
2017-10-26T05:00:03.555Z,12.70
2017-10-26T05:02:29.548Z,13.20
2017-10-26T05:04:56.279Z,13.20
2017-10-26T05:07:22.215Z,15.37
2017-10-26T05:09:48.243Z,13.30
2017-10-26T05:12:14.256Z,14.90
2017-10-26T05:14:40.961Z,16.20
2017-10-26T05:17:06.940Z,14.30
2017-10-26T05:19:32.958Z,14.40
2017-10-26T05:21:58.977Z,13.90
2017-10-26T05:24:25.731Z,13.97
2017-10-26T05:26:51.737Z,13.73
2017-10-26T05:29:17.772Z,14.20
2017-10-26T05:31:44.756Z,13.67
2017-10-26T05:34:10.741Z,14.53
2017-10-26T05:36:36.909Z,14.50
2017-10-26T05:39:03.089Z,15.30
2017-10-26T05:41:29.088Z,13.90
2017-10-26T05:43:55.838Z,12.87
2017-10-26T05:46:22.540Z,13.20
2017-10-26T05:48:48.525Z,12.67
2017-10-26T05:51:16.166Z,15.47
2017-10-26T05:53:42.375Z,14.20
2017-10-26T05:56:09.153Z,15.07
2017-10-26T05:58:35.282Z,17.90
2017-10-26T06:01:01.308Z,17.20
2017-10-26T06:03:28.300Z,14.70
2017-10-26T06:05:54.393Z,14.77
2017-10-26T06:08:21.016Z,14.30
2017-10-26T06:10:47.035Z,14.33
2017-10-26T06:13:13.425Z,13.80
2017-10-26T06:15:40.001Z,14.73
2017-10-26T06:18:06.086Z,15.60
2017-10-26T06:20:33.013Z,14.37
2017-10-26T06:22:58.985Z,16.20
2017-10-26T06:25:25.131Z,15.87
2017-10-26T06:27:51.241Z,17.10
2017-10-26T06:30:17.280Z,18.23
2017-10-26T06:32:43.408Z,15.03
2017-10-26T06:35:09.492Z,16.10
2017-10-26T06:37:35.682Z,14.93
2017-10-26T06:40:01.725Z,15.50
2017-10-26T06:42:27.842Z,13.93
2017-10-26T06:44:55.101Z,16.37
2017-10-26T06:47:21.852Z,15.17
2017-10-26T06:49:47.971Z,17.57
2017-10-26T06:52:14.859Z,15.97
2017-10-26T06:54:40.830Z,17.87
2017-10-26T06:57:06.870Z,18.03
2017-10-26T06:59:32.908Z,16.50
2017-10-26T07:01:59.052Z,15.90
2017-10-26T07:04:25.046Z,15.47
2017-10-26T07:06:51.011Z,16.53
2017-10-26T07:09:17.019Z,17.30
2017-10-26T07:11:43.096Z,16.40
2017-10-26T07:14:09.195Z,16.70
2017-10-26T07:16:35.216Z,17.30
2017-10-26T07:19:01.347Z,17.27
2017-10-26T07:21:27.306Z,15.33
2017-10-26T07:23:53.303Z,17.70
2017-10-26T07:26:20.152Z,17.30
2017-10-26T07:28:46.278Z,16.80
2017-10-26T07:31:12.290Z,16.07
2017-10-26T07:33:38.238Z,16.40
2017-10-26T07:36:04.216Z,17.40
2017-10-26T07:38:30.152Z,16.77
2017-10-26T07:40:56.932Z,16.17
2017-10-26T07:43:23.833Z,19.80
2017-10-26T07:45:49.819Z,19.27
2017-10-26T07:48:15.872Z,18.43
2017-10-26T07:50:42.925Z,15.53
2017-10-26T07:53:09.207Z,15.63
2017-10-26T07:55:36.928Z,16.37
2017-10-26T07:58:03.120Z,15.30
2017-10-26T08:00:29.075Z,17.70
2017-10-26T08:02:55.930Z,15.20
2017-10-26T08:05:22.030Z,16.10
2017-10-26T08:07:48.163Z,16.20
2017-10-26T08:10:14.181Z,14.87
2017-10-26T08:12:40.200Z,16.30
2017-10-26T08:15:06.258Z,15.57
2017-10-26T08:17:32.257Z,15.07
2017-10-26T08:19:58.317Z,17.37
2017-10-26T08:22:24.297Z,16.60
2017-10-26T08:24:51.131Z,17.27
2017-10-26T08:27:18.022Z,17.23
2017-10-26T08:29:44.074Z,16.87
2017-10-26T08:32:10.234Z,17.83
2017-10-26T08:34:37.386Z,15.97
2017-10-26T08:37:03.450Z,16.60
2017-10-26T08:39:29.511Z,16.40
2017-10-26T08:41:55.449Z,16.40
2017-10-26T08:44:22.188Z,16.10
2017-10-26T08:46:48.982Z,17.20
2017-10-26T08:49:14.971Z,17.03
2017-10-26T08:51:40.972Z,18.90
2017-10-26T08:54:06.988Z,17.53
2017-10-26T08:56:33.585Z,18.40
2017-10-26T08:58:59.519Z,16.07
2017-10-26T09:01:26.881Z,16.80
2017-10-26T09:03:53.860Z,18.00
2017-10-26T09:06:19.884Z,18.67
2017-10-26T09:08:45.873Z,18.57
2017-10-26T09:11:11.820Z,17.30
2017-10-26T09:13:37.861Z,19.10
2017-10-26T09:16:03.888Z,20.37
2017-10-26T09:18:29.917Z,18.93
2017-10-26T09:20:55.842Z,19.07
2017-10-26T09:23:21.896Z,18.80
2017-10-26T09:25:47.976Z,20.30
2017-10-26T09:28:14.243Z,20.83
2017-10-26T09:30:40.837Z,21.10
2017-10-26T09:33:26.625Z,21.13
2017-10-26T09:35:52.624Z,21.40
2017-10-26T09:38:19.280Z,18.67
2017-10-26T09:40:45.266Z,18.47
2017-10-26T09:43:11.283Z,17.60
2017-10-26T09:45:37.253Z,17.33
2017-10-26T09:48:03.244Z,16.57
2017-10-26T09:50:29.272Z,16.30
2017-10-26T09:52:55.399Z,16.73
2017-10-26T09:55:21.364Z,16.63
2017-10-26T09:57:47.295Z,15.90
2017-10-26T10:00:13.623Z,15.60
2017-10-26T10:02:39.614Z,15.73
2017-10-26T10:05:05.615Z,15.43
2017-10-26T10:07:32.372Z,15.33
2017-10-26T10:09:58.500Z,13.30
2017-10-26T10:12:25.218Z,14.20
2017-10-26T10:14:52.969Z,16.07
2017-10-26T10:17:18.943Z,13.40
2017-10-26T10:19:44.931Z,12.80
2017-10-26T10:22:11.043Z,12.47
2017-10-26T10:24:37.031Z,12.87
2017-10-26T10:27:03.113Z,10.83
2017-10-26T10:29:29.851Z,11.97
2017-10-26T10:31:55.785Z,11.77
2017-10-26T10:34:21.816Z,10.70
2017-10-26T10:36:47.796Z,10.87
2017-10-26T10:39:13.789Z,10.53
2017-10-26T10:41:39.796Z,10.73
2017-10-26T10:44:05.937Z,9.93
2017-10-26T10:46:31.931Z,11.97
2017-10-26T10:48:57.892Z,11.57
2017-10-26T10:51:23.858Z,12.30
2017-10-26T10:53:50.825Z,11.30
2017-10-26T10:56:16.792Z,11.27
2017-10-26T10:58:45.930Z,10.90
2017-10-26T11:01:12.480Z,10.30
2017-10-26T11:03:39.111Z,10.63
2017-10-26T11:06:05.402Z,10.07
2017-10-26T11:08:32.485Z,10.43
2017-10-26T11:10:58.514Z,10.87
2017-10-26T11:13:24.476Z,10.83
2017-10-26T11:15:51.330Z,10.80
2017-10-26T11:18:17.447Z,10.83
2017-10-26T11:20:43.400Z,10.63
2017-10-26T11:23:09.369Z,11.20
2017-10-26T11:25:35.985Z,10.80
2017-10-26T11:28:02.056Z,12.20
2017-10-26T11:30:28.055Z,11.03
2017-10-26T11:32:54.200Z,12.00
2017-10-26T11:35:21.021Z,11.30
2017-10-26T11:37:47.140Z,11.20
2017-10-26T11:40:13.308Z,12.30
2017-10-26T11:42:39.431Z,11.60
2017-10-26T11:45:06.753Z,12.13
2017-10-26T11:47:33.819Z,13.70
2017-10-26T11:50:00.563Z,13.33
2017-10-26T11:52:26.583Z,11.80
2017-10-26T11:54:53.326Z,12.43
2017-10-26T11:57:19.353Z,11.77
2017-10-26T11:59:46.101Z,11.50
2017-10-26T12:02:12.088Z,11.90
2017-10-26T12:04:38.017Z,12.47
2017-10-26T12:07:04.774Z,12.77
2017-10-26T12:09:30.783Z,12.40
2017-10-26T12:11:57.539Z,11.20
2017-10-26T12:14:24.556Z,11.20
2017-10-26T12:16:50.654Z,10.70
2017-10-26T12:19:16.669Z,11.30
2017-10-26T12:21:42.773Z,10.50
2017-10-26T12:24:08.763Z,10.53
2017-10-26T12:26:34.716Z,10.73
2017-10-26T12:29:00.669Z,10.60
2017-10-26T12:31:26.647Z,10.43
2017-10-26T12:33:52.657Z,10.13
2017-10-26T12:36:18.621Z,10.07
2017-10-26T12:38:44.616Z,10.37
2017-10-26T12:41:10.623Z,10.60
2017-10-26T12:43:37.284Z,10.40
2017-10-26T12:46:03.258Z,11.80
2017-10-26T12:48:29.201Z,11.27
2017-10-26T12:50:55.140Z,12.40
2017-10-26T12:53:21.160Z,9.87
2017-10-26T12:55:47.077Z,10.23
2017-10-26T12:58:13.233Z,9.17
2017-10-26T13:00:39.225Z,10.00
2017-10-26T13:03:05.151Z,9.33
2017-10-26T13:05:31.145Z,10.00
2017-10-26T13:07:57.168Z,9.90
2017-10-26T13:10:23.827Z,11.50
2017-10-26T13:12:49.971Z,9.73
2017-10-26T13:15:15.985Z,10.90
2017-10-26T13:17:41.969Z,9.73
2017-10-26T13:20:07.923Z,9.30
2017-10-26T13:22:33.848Z,10.90
2017-10-26T13:24:59.768Z,11.87
2017-10-26T13:27:26.476Z,11.70
2017-10-26T13:29:52.424Z,11.20
2017-10-26T13:32:19.067Z,12.13
2017-10-26T13:34:45.105Z,11.50
2017-10-26T13:37:11.099Z,12.67
2017-10-26T13:39:37.761Z,13.57
2017-10-26T13:42:03.763Z,14.13
2017-10-26T13:44:29.807Z,12.60
2017-10-26T13:46:55.818Z,13.93
2017-10-26T13:49:21.779Z,14.93
2017-10-26T13:51:47.747Z,15.00
2017-10-26T13:54:13.684Z,14.87
2017-10-26T13:56:39.647Z,17.00
2017-10-26T13:59:05.649Z,16.40
2017-10-26T14:01:31.615Z,16.03
2017-10-26T14:03:57.585Z,18.43
2017-10-26T14:06:23.605Z,17.00
2017-10-26T14:08:49.543Z,17.33
2017-10-26T14:11:15.506Z,16.20
2017-10-26T14:13:41.495Z,17.07
2017-10-26T14:16:07.471Z,16.47
2017-10-26T14:18:33.505Z,18.23
2017-10-26T14:20:59.534Z,19.00
2017-10-26T14:23:25.471Z,18.13
2017-10-26T14:25:51.527Z,17.30
2017-10-26T14:28:18.258Z,17.27
2017-10-26T14:30:44.336Z,17.20
2017-10-26T14:33:10.316Z,17.73
2017-10-26T14:35:37.195Z,17.60
2017-10-26T14:38:03.147Z,16.90
2017-10-26T14:40:29.100Z,16.00
2017-10-26T14:42:55.934Z,17.20
2017-10-26T14:45:21.990Z,17.93
2017-10-26T14:47:48.040Z,15.63
2017-10-26T14:50:14.965Z,14.70
2017-10-26T14:52:40.952Z,16.07
2017-10-26T14:55:07.025Z,15.20
2017-10-26T14:57:33.011Z,15.47
2017-10-26T14:59:59.779Z,13.87
2017-10-26T15:02:26.747Z,13.10
2017-10-26T15:04:52.712Z,13.63
2017-10-26T15:07:19.436Z,14.03
2017-10-26T15:09:45.704Z,12.47
2017-10-26T15:12:11.621Z,13.40
2017-10-26T15:14:37.623Z,13.53
2017-10-26T15:17:03.694Z,13.13
2017-10-26T15:19:29.710Z,13.50
2017-10-26T15:21:55.699Z,12.23
2017-10-26T15:24:21.774Z,11.90
2017-10-26T15:26:47.841Z,12.60
2017-10-26T15:29:13.849Z,13.10
2017-10-26T15:31:40.625Z,13.30
2017-10-26T15:34:06.640Z,12.90
2017-10-26T15:36:33.423Z,13.47
2017-10-26T15:39:03.777Z,13.67
2017-10-26T15:41:31.617Z,13.10
2017-10-26T15:43:58.334Z,14.20
2017-10-26T15:51:26.538Z,14.60
2017-10-26T15:53:52.544Z,14.60
2017-10-26T15:56:18.500Z,13.77
2017-10-26T15:58:44.487Z,14.07
2017-10-26T16:01:10.844Z,13.33
2017-10-26T16:03:36.866Z,13.53
2017-10-26T16:06:02.835Z,13.40
2017-10-26T16:08:28.838Z,15.00
2017-10-26T16:10:55.152Z,18.10
2017-10-26T16:13:21.251Z,17.67
2017-10-26T16:15:47.308Z,14.87
2017-10-26T16:18:14.051Z,14.67
2017-10-26T16:20:40.036Z,14.90
2017-10-26T16:23:06.010Z,14.17
2017-10-26T16:25:32.774Z,14.63
2017-10-26T16:27:58.815Z,14.43
2017-10-26T16:30:24.892Z,14.87
2017-10-26T16:32:51.751Z,14.33
2017-10-26T16:35:17.785Z,13.50
2017-10-26T16:37:43.928Z,14.43
2017-10-26T16:40:09.989Z,13.20
2017-10-26T16:42:36.781Z,14.30
2017-10-26T16:45:03.497Z,15.37
2017-10-26T16:47:30.904Z,14.30
2017-10-26T16:49:57.901Z,14.70
2017-10-26T16:52:24.001Z,15.10
2017-10-26T16:54:50.510Z,15.17
2017-10-26T16:57:16.829Z,13.10
2017-10-26T16:59:43.343Z,14.30
2017-10-26T17:02:09.377Z,13.23
2017-10-26T17:04:35.855Z,15.00
2017-10-26T17:07:02.347Z,13.50
2017-10-26T17:09:28.336Z,14.87
2017-10-26T17:11:54.428Z,14.97
2017-10-26T17:14:20.415Z,14.17
2017-10-26T17:16:46.409Z,14.93
2017-10-26T17:19:12.430Z,14.47
2017-10-26T17:21:38.496Z,14.43
2017-10-26T17:24:04.459Z,16.33
2017-10-26T17:26:30.775Z,15.37
2017-10-26T17:28:56.891Z,15.70
2017-10-26T17:31:22.962Z,15.70
2017-10-26T17:33:50.010Z,14.87
2017-10-26T17:36:16.045Z,15.83
2017-10-26T17:38:42.079Z,16.37
2017-10-26T17:41:08.101Z,18.50
2017-10-26T17:43:34.136Z,16.43
2017-10-26T17:46:00.149Z,15.43
2017-10-26T17:48:26.733Z,14.93
2017-10-26T17:50:52.788Z,15.53
2017-10-26T17:53:19.139Z,16.17
2017-10-26T17:55:45.374Z,18.07
2017-10-26T17:58:11.430Z,17.70
2017-10-26T18:00:38.446Z,15.53
2017-10-26T18:03:05.081Z,16.60
2017-10-26T18:05:31.120Z,16.13
2017-10-26T18:07:57.173Z,15.40
2017-10-26T18:10:23.234Z,16.23
2017-10-26T18:12:49.424Z,17.90
2017-10-26T18:15:19.708Z,16.00
2017-10-26T18:17:46.978Z,17.70
2017-10-26T18:20:13.973Z,16.23
2017-10-26T18:22:40.894Z,17.70
2017-10-26T18:25:06.944Z,15.90
2017-10-26T18:27:33.112Z,15.40
2017-10-26T18:29:59.882Z,16.27
2017-10-26T18:32:26.136Z,16.83
2017-10-26T18:34:52.664Z,17.67
2017-10-26T18:37:19.528Z,17.53
2017-10-26T18:39:47.631Z,16.87
2017-10-26T18:42:14.576Z,15.90
2017-10-26T18:47:12.596Z,17.57
2017-10-26T18:52:10.083Z,16.90
2017-10-26T18:54:36.077Z,18.00
2017-10-26T18:57:02.107Z,17.20
2017-10-26T18:59:28.136Z,17.50
2017-10-26T19:01:54.119Z,18.93
2017-10-26T19:04:20.062Z,17.23
2017-10-26T19:06:46.092Z,16.73
2017-10-26T19:09:13.184Z,18.87
2017-10-26T19:11:39.390Z,18.60
2017-10-26T19:14:05.573Z,18.03
2017-10-26T19:19:04.336Z,19.97
2017-10-26T19:21:30.333Z,18.77
2017-10-26T19:23:56.627Z,18.87
2017-10-26T19:26:22.934Z,17.17
2017-10-26T19:28:48.921Z,19.17
2017-10-26T19:31:17.985Z,18.97
2017-10-26T19:33:44.033Z,19.27
2017-10-26T19:36:13.461Z,17.60
2017-10-26T19:38:39.776Z,18.70
2017-10-26T19:41:05.823Z,20.17
2017-10-26T19:43:33.021Z,19.03
2017-10-26T19:48:29.664Z,18.20
2017-10-26T19:50:55.636Z,17.97
2017-10-26T19:53:22.127Z,18.80
2017-10-26T19:58:19.189Z,20.50
2017-10-26T20:00:45.970Z,20.90
2017-10-26T20:03:11.945Z,19.87
2017-10-26T20:05:38.280Z,21.07
2017-10-26T20:08:05.014Z,18.87
2017-10-26T20:10:31.267Z,20.23
2017-10-26T20:12:57.458Z,18.27
2017-10-26T20:15:23.416Z,17.70
2017-10-26T20:17:52.737Z,18.23
2017-10-26T20:20:19.091Z,18.40
2017-10-26T20:22:45.479Z,17.30
2017-10-26T20:25:11.757Z,20.40
2017-10-26T20:27:38.169Z,24.10
2017-10-26T20:30:05.200Z,18.80
2017-10-26T20:32:32.053Z,16.73
2017-10-26T20:37:30.351Z,18.80
2017-10-26T20:40:00.478Z,16.57
2017-10-26T20:42:26.697Z,17.73
2017-10-26T20:44:52.694Z,17.33
2017-10-26T20:47:18.738Z,20.33
2017-10-26T20:49:51.749Z,18.50
2017-10-26T20:52:23.863Z,17.13
2017-10-26T20:54:55.865Z,18.00
2017-10-26T20:57:28.238Z,18.57
2017-10-26T21:00:04.472Z,17.23
2017-10-26T21:05:13.512Z,17.83
2017-10-26T21:07:45.577Z,18.50
2017-10-26T21:10:19.841Z,19.60
2017-10-26T21:12:52.001Z,19.00
2017-10-26T21:15:17.998Z,17.20
2017-10-26T21:17:44.547Z,18.57
2017-10-26T21:20:10.768Z,18.57
2017-10-26T21:22:37.344Z,21.93
2017-10-26T21:25:04.172Z,20.13
2017-10-26T21:27:30.315Z,18.80
2017-10-26T21:29:57.028Z,17.67
2017-10-26T21:32:23.591Z,17.97
2017-10-26T21:34:49.788Z,18.60
2017-10-26T21:37:15.816Z,17.77
2017-10-26T21:39:41.835Z,17.60
2017-10-26T21:42:09.295Z,17.00
2017-10-26T21:44:35.346Z,17.60
2017-10-26T21:47:01.391Z,17.40
2017-10-26T21:49:27.350Z,17.90
2017-10-26T21:51:53.390Z,17.67
2017-10-26T21:54:20.946Z,18.23
2017-10-26T21:56:47.008Z,18.47
2017-10-26T21:59:12.949Z,18.87
2017-10-26T22:01:39.182Z,14.87
2017-10-26T22:04:05.182Z,18.20
2017-10-26T22:06:32.171Z,17.17
2017-10-26T22:08:58.271Z,16.63
2017-10-26T22:11:24.301Z,17.80
2017-10-26T22:13:50.298Z,16.53
2017-10-26T22:16:16.318Z,17.83
2017-10-26T22:18:42.356Z,16.83
2017-10-26T22:21:08.337Z,16.57
2017-10-26T22:23:35.067Z,16.13
2017-10-26T22:26:01.029Z,17.40
2017-10-26T22:28:27.137Z,16.97
2017-10-26T22:30:53.161Z,16.73
2017-10-26T22:33:19.225Z,17.50
2017-10-26T22:35:45.406Z,15.97
2017-10-26T22:38:11.512Z,16.23
2017-10-26T22:40:37.456Z,15.90
2017-10-26T22:43:03.480Z,16.47
2017-10-26T22:45:30.132Z,16.10
2017-10-26T22:47:56.104Z,15.73
2017-10-26T22:50:22.073Z,15.87
2017-10-26T22:52:48.064Z,16.03
2017-10-26T22:55:14.767Z,15.60
2017-10-26T22:57:40.744Z,14.97
2017-10-26T23:00:08.308Z,16.40
2017-10-26T23:02:34.240Z,16.13
2017-10-26T23:05:00.780Z,15.87
2017-10-26T23:07:26.805Z,15.97
2017-10-26T23:09:52.771Z,14.50
2017-10-26T23:12:18.700Z,15.17
2017-10-26T23:14:44.725Z,14.80
2017-10-26T23:17:11.439Z,14.37
2017-10-26T23:19:37.521Z,14.33
2017-10-26T23:22:03.541Z,14.73
2017-10-26T23:24:29.471Z,13.20
2017-10-26T23:26:55.417Z,14.23
2017-10-26T23:29:21.513Z,13.77
2017-10-26T23:31:47.471Z,13.17
2017-10-26T23:34:14.843Z,13.30
2017-10-26T23:36:40.752Z,13.07
2017-10-26T23:39:06.684Z,13.80
2017-10-26T23:41:32.901Z,13.33
2017-10-26T23:43:58.865Z,14.17
2017-10-26T23:46:24.857Z,14.53
2017-10-26T23:48:50.892Z,13.63
2017-10-26T23:51:17.625Z,13.10
2017-10-26T23:53:44.304Z,13.37
2017-10-26T23:56:12.035Z,13.20
2017-10-26T23:58:38.798Z,12.83
